createdAt,value
2022-10-28T00:01:40.044Z,3.97
2022-10-28T00:04:42.118Z,3.75
2022-10-28T00:07:44.000Z,3.75
2022-10-28T00:10:45.849Z,3.80
2022-10-28T00:13:48.568Z,3.58
2022-10-28T00:16:50.531Z,3.95
2022-10-28T00:19:52.418Z,3.15
2022-10-28T00:22:55.766Z,3.50
2022-10-28T00:26:08.223Z,3.13
2022-10-28T00:29:13.093Z,3.40
2022-10-28T00:32:15.065Z,3.42
2022-10-28T00:35:17.045Z,3.28
2022-10-28T00:38:18.950Z,3.60
2022-10-28T00:41:30.904Z,3.78
2022-10-28T00:44:56.296Z,4.15
2022-10-28T00:48:04.748Z,7.65
2022-10-28T00:54:09.109Z,3.95
2022-10-28T01:00:15.994Z,3.70
2022-10-28T01:03:18.215Z,4.07
2022-10-28T01:06:20.611Z,3.85
2022-10-28T01:12:55.304Z,3.17
2022-10-28T01:16:34.817Z,4.43
2022-10-28T01:20:04.642Z,3.67
2022-10-28T01:23:21.436Z,5.68
2022-10-28T01:26:51.468Z,3.25
2022-10-28T01:29:59.157Z,3.35
2022-10-28T01:33:07.112Z,3.65
2022-10-28T01:36:15.012Z,3.85
2022-10-28T01:39:19.927Z,3.38
2022-10-28T01:42:35.386Z,3.63
2022-10-28T01:46:01.349Z,3.45
2022-10-28T01:49:13.488Z,3.50
2022-10-28T01:52:19.993Z,3.45
2022-10-28T01:55:29.934Z,3.05
2022-10-28T01:58:33.546Z,3.53
2022-10-28T02:01:36.822Z,3.47
2022-10-28T02:04:38.892Z,3.08
2022-10-28T02:07:40.798Z,3.25
2022-10-28T02:11:00.907Z,3.58
2022-10-28T02:14:23.908Z,3.35
2022-10-28T02:17:56.935Z,3.58
2022-10-28T02:21:13.269Z,3.10
2022-10-28T02:24:40.480Z,3.42
2022-10-28T02:28:04.640Z,2.97
2022-10-28T02:31:18.507Z,3.83
2022-10-28T02:34:25.684Z,3.08
2022-10-28T02:37:32.706Z,3.70
2022-10-28T02:40:38.020Z,3.40
2022-10-28T02:43:43.885Z,3.60
2022-10-28T02:46:49.653Z,3.33
2022-10-28T02:49:57.140Z,3.13
2022-10-28T02:53:01.128Z,4.15
2022-10-28T02:56:06.476Z,3.05
2022-10-28T02:59:12.876Z,3.50
2022-10-28T03:02:14.789Z,3.13
2022-10-28T03:05:16.864Z,3.38
2022-10-28T03:08:18.755Z,3.50
2022-10-28T03:11:20.646Z,3.40
2022-10-28T03:14:22.541Z,3.33
2022-10-28T03:17:24.528Z,3.92
2022-10-28T03:20:26.442Z,3.25
2022-10-28T03:23:30.559Z,3.15
2022-10-28T03:26:32.508Z,3.30
2022-10-28T03:29:35.807Z,2.97
2022-10-28T03:32:37.870Z,3.55
2022-10-28T03:35:39.754Z,3.65
2022-10-28T03:38:41.635Z,3.65
2022-10-28T03:41:43.629Z,2.83
2022-10-28T03:44:45.484Z,3.30
2022-10-28T03:47:47.434Z,3.20
2022-10-28T03:50:53.366Z,3.38
2022-10-28T03:53:55.245Z,3.00
2022-10-28T03:56:57.150Z,3.38
2022-10-28T03:59:59.207Z,2.88
2022-10-28T04:03:01.094Z,3.38
2022-10-28T04:06:05.145Z,2.95
2022-10-28T04:09:07.186Z,3.33
2022-10-28T04:12:10.936Z,3.20
2022-10-28T04:15:12.771Z,4.22
2022-10-28T04:18:14.663Z,3.05
2022-10-28T04:21:16.534Z,2.80
2022-10-28T04:24:18.461Z,2.90
2022-10-28T04:27:20.787Z,2.85
2022-10-28T04:33:26.202Z,3.47
2022-10-28T04:36:28.066Z,3.53
2022-10-28T04:39:29.903Z,2.90
2022-10-28T04:42:32.143Z,3.55
2022-10-28T04:45:34.315Z,3.42
2022-10-28T04:48:36.441Z,2.97
2022-10-28T04:51:38.357Z,3.40
2022-10-28T04:54:40.303Z,3.70
2022-10-28T04:57:42.250Z,3.38
2022-10-28T05:00:45.399Z,3.22
2022-10-28T05:03:47.373Z,3.28
2022-10-28T05:06:49.525Z,3.60
2022-10-28T05:09:51.525Z,3.45
2022-10-28T05:12:53.448Z,3.35
2022-10-28T05:15:55.363Z,3.75
2022-10-28T05:18:58.090Z,3.47
2022-10-28T05:21:59.966Z,3.75
2022-10-28T05:25:01.942Z,4.00
2022-10-28T05:28:05.049Z,3.50
2022-10-28T05:31:06.891Z,2.92
2022-10-28T05:34:08.770Z,3.20
2022-10-28T05:37:12.070Z,2.95
2022-10-28T05:40:21.073Z,3.08
2022-10-28T05:43:23.040Z,3.70
2022-10-28T05:46:25.001Z,3.58
2022-10-28T05:49:26.929Z,3.00
2022-10-28T05:52:29.051Z,3.63
2022-10-28T05:55:31.047Z,3.33
2022-10-28T05:58:33.238Z,3.45
2022-10-28T06:01:37.468Z,3.30
2022-10-28T06:04:42.555Z,4.05
2022-10-28T06:07:44.630Z,3.40
2022-10-28T06:10:55.515Z,2.83
2022-10-28T06:13:57.518Z,2.80
2022-10-28T06:16:59.549Z,2.80
2022-10-28T06:20:02.875Z,4.20
2022-10-28T06:23:04.889Z,3.28
2022-10-28T06:26:10.808Z,2.78
2022-10-28T06:29:13.064Z,2.90
2022-10-28T06:32:17.142Z,3.20
2022-10-28T06:35:19.276Z,3.50
2022-10-28T06:38:21.359Z,3.55
2022-10-28T06:41:23.305Z,3.55
2022-10-28T06:44:25.236Z,3.25
2022-10-28T06:47:28.811Z,3.00
2022-10-28T06:50:31.041Z,3.25
2022-10-28T06:53:33.093Z,2.65
2022-10-28T06:56:35.053Z,3.42
2022-10-28T06:59:37.299Z,2.75
2022-10-28T07:02:42.819Z,5.53
2022-10-28T07:05:49.079Z,5.00
2022-10-28T07:08:52.145Z,5.07
2022-10-28T07:11:55.336Z,3.80
2022-10-28T07:14:57.776Z,3.55
2022-10-28T07:18:00.447Z,2.78
2022-10-28T07:21:02.873Z,3.38
2022-10-28T07:27:07.779Z,4.95
2022-10-28T07:30:13.006Z,3.10
2022-10-28T07:33:17.329Z,4.35
2022-10-28T07:36:19.604Z,3.58
2022-10-28T07:39:22.192Z,3.15
2022-10-28T07:45:26.142Z,3.00
2022-10-28T07:48:28.126Z,3.30
2022-10-28T07:51:30.531Z,2.70
2022-10-28T07:57:37.628Z,2.55
2022-10-28T08:00:42.064Z,3.10
2022-10-28T08:03:44.577Z,3.67
2022-10-28T08:09:48.529Z,3.13
2022-10-28T08:12:50.574Z,2.95
2022-10-28T08:15:54.309Z,3.03
2022-10-28T08:18:56.515Z,3.17
2022-10-28T08:21:58.860Z,2.90
2022-10-28T08:28:05.002Z,3.53
2022-10-28T08:31:09.168Z,3.83
2022-10-28T08:34:11.700Z,3.08
2022-10-28T08:37:13.681Z,2.85
2022-10-28T08:40:15.780Z,3.55
2022-10-28T08:43:57.093Z,3.40
2022-10-28T08:47:03.236Z,3.08
2022-10-28T08:50:17.129Z,3.42
2022-10-28T08:53:25.809Z,3.00
2022-10-28T08:56:35.576Z,2.80
2022-10-28T08:59:41.126Z,2.40
2022-10-28T09:02:54.211Z,3.00
2022-10-28T09:06:14.411Z,2.92
2022-10-28T09:09:22.225Z,2.60
2022-10-28T09:12:33.013Z,3.08
2022-10-28T09:15:37.779Z,3.30
2022-10-28T09:19:14.903Z,3.05
2022-10-28T09:22:20.924Z,2.92
2022-10-28T09:25:31.987Z,3.45
2022-10-28T09:28:52.478Z,3.03
2022-10-28T09:32:03.362Z,2.60
2022-10-28T09:35:16.231Z,3.17
2022-10-28T09:38:20.978Z,3.40
2022-10-28T09:41:24.964Z,3.70
2022-10-28T09:44:44.300Z,3.40
2022-10-28T09:47:57.102Z,3.50
2022-10-28T09:50:59.851Z,3.22
2022-10-28T09:54:02.473Z,3.28
2022-10-28T09:57:05.046Z,2.70
2022-10-28T10:00:08.465Z,2.83
2022-10-28T10:03:11.370Z,3.30
2022-10-28T10:06:29.641Z,3.50
2022-10-28T10:09:34.333Z,2.80
2022-10-28T10:12:37.663Z,2.38
2022-10-28T10:15:50.095Z,2.47
2022-10-28T10:18:57.729Z,2.70
2022-10-28T10:21:59.672Z,2.38
2022-10-28T10:25:02.317Z,2.78
2022-10-28T10:28:16.328Z,2.67
2022-10-28T10:31:27.901Z,3.15
2022-10-28T10:34:29.980Z,2.22
2022-10-28T10:40:40.495Z,2.80
2022-10-28T10:43:42.369Z,2.55
2022-10-28T10:46:44.231Z,2.00
2022-10-28T10:49:46.994Z,2.88
2022-10-28T11:03:22.476Z,2.28
2022-10-28T11:06:28.909Z,2.10
2022-10-28T11:09:35.847Z,2.45
2022-10-28T11:12:38.259Z,2.20
2022-10-28T11:15:40.160Z,2.25
2022-10-28T11:18:45.345Z,2.03
2022-10-28T11:22:10.883Z,2.22
2022-10-28T11:25:38.361Z,2.72
2022-10-28T11:28:55.603Z,2.17
2022-10-28T11:32:28.680Z,2.30
2022-10-28T11:35:56.900Z,2.00
2022-10-28T11:38:58.723Z,2.00
2022-10-28T11:42:12.376Z,2.40
2022-10-28T11:49:08.211Z,2.45
2022-10-28T11:52:44.157Z,2.25
2022-10-28T11:56:05.127Z,3.03
2022-10-28T12:02:33.643Z,3.03
2022-10-28T12:05:48.138Z,2.65
2022-10-28T12:09:11.833Z,3.35
2022-10-28T12:12:23.705Z,2.72
2022-10-28T12:15:49.637Z,2.50
2022-10-28T12:22:23.865Z,2.40
2022-10-28T12:25:33.264Z,2.85
2022-10-28T12:28:47.062Z,3.30
2022-10-28T12:31:54.991Z,3.20
2022-10-28T12:38:11.058Z,2.80
2022-10-28T12:41:21.894Z,2.75
2022-10-28T12:44:30.106Z,3.17
2022-10-28T12:47:42.108Z,2.40
2022-10-28T12:50:54.186Z,2.65
2022-10-28T12:53:58.600Z,2.55
2022-10-28T12:57:22.396Z,2.72
2022-10-28T13:00:29.590Z,2.55
2022-10-28T13:03:32.141Z,2.40
2022-10-28T13:06:48.975Z,2.80
2022-10-28T13:09:54.432Z,2.47
2022-10-28T13:13:09.281Z,2.58
2022-10-28T13:16:37.084Z,2.33
2022-10-28T13:19:52.901Z,2.45
2022-10-28T13:23:11.423Z,2.40
2022-10-28T13:26:31.681Z,2.75
2022-10-28T13:29:36.655Z,2.38
2022-10-28T13:32:41.648Z,2.53
2022-10-28T13:35:48.793Z,2.67
2022-10-28T13:38:57.735Z,2.45
2022-10-28T13:42:16.294Z,2.75
2022-10-28T13:45:48.425Z,2.33
2022-10-28T13:48:50.874Z,2.90
2022-10-28T13:52:12.071Z,2.78
2022-10-28T13:55:51.687Z,3.05
2022-10-28T13:59:03.345Z,3.03
2022-10-28T14:02:36.580Z,2.65
2022-10-28T14:05:38.873Z,3.10
2022-10-28T14:08:41.825Z,2.58
2022-10-28T14:11:44.133Z,3.17
2022-10-28T14:15:14.074Z,2.90
2022-10-28T14:18:41.811Z,4.10
2022-10-28T14:22:02.454Z,2.58
2022-10-28T14:25:43.612Z,2.67
2022-10-28T14:28:45.652Z,2.85
2022-10-28T14:31:47.892Z,3.55
2022-10-28T14:34:53.063Z,2.90
2022-10-28T14:38:16.799Z,2.67
2022-10-28T14:41:40.713Z,2.88
2022-10-28T14:45:03.132Z,2.10
2022-10-28T14:48:05.705Z,2.60
2022-10-28T14:51:20.344Z,2.90
2022-10-28T14:54:39.726Z,3.28
2022-10-28T14:57:42.851Z,2.83
2022-10-28T15:01:11.601Z,2.88
2022-10-28T15:04:20.955Z,2.55
2022-10-28T15:07:23.091Z,2.80
2022-10-28T15:10:31.353Z,2.70
2022-10-28T15:13:33.744Z,3.13
2022-10-28T15:16:35.864Z,3.03
2022-10-28T15:19:38.113Z,2.95
2022-10-28T15:22:40.150Z,2.83
2022-10-28T15:25:42.485Z,3.22
2022-10-28T15:28:45.094Z,3.03
2022-10-28T15:32:13.667Z,2.55
2022-10-28T15:35:45.297Z,3.03
2022-10-28T15:38:50.632Z,3.45
2022-10-28T15:41:52.757Z,3.20
2022-10-28T15:44:55.298Z,3.50
2022-10-28T15:47:59.021Z,3.30
2022-10-28T15:51:18.177Z,2.75
2022-10-28T15:54:20.571Z,3.15
2022-10-28T15:57:25.585Z,4.40
2022-10-28T16:00:29.490Z,3.63
2022-10-28T16:03:46.386Z,4.00
2022-10-28T16:06:50.954Z,4.40
2022-10-28T16:09:52.982Z,3.75
2022-10-28T16:16:01.656Z,5.55
2022-10-28T16:19:16.321Z,4.22
2022-10-28T16:22:19.316Z,3.67
2022-10-28T16:25:22.655Z,3.13
2022-10-28T16:28:28.442Z,3.13
2022-10-28T16:31:31.787Z,3.25
2022-10-28T16:34:33.823Z,5.45
2022-10-28T16:37:38.340Z,6.28
2022-10-28T16:40:51.547Z,4.00
2022-10-28T16:43:54.448Z,3.83
2022-10-28T16:46:56.927Z,3.80
2022-10-28T16:49:59.249Z,4.20
2022-10-28T16:53:01.310Z,4.00
2022-10-28T16:59:05.436Z,4.30
2022-10-28T17:05:22.889Z,4.20
2022-10-28T17:08:48.995Z,4.13
2022-10-28T17:11:47.210Z,5.13
2022-10-28T17:14:50.059Z,5.18
2022-10-28T17:17:52.979Z,6.18
2022-10-28T17:21:02.806Z,5.80
2022-10-28T17:24:05.234Z,4.75
2022-10-28T17:27:07.858Z,5.40
2022-10-28T17:30:13.051Z,4.35
2022-10-28T17:33:15.275Z,3.70
2022-10-28T17:39:24.820Z,4.68
2022-10-28T17:42:28.215Z,4.32
2022-10-28T17:45:30.198Z,3.65
2022-10-28T17:48:32.305Z,3.90
2022-10-28T17:54:36.821Z,3.38
2022-10-28T17:57:38.998Z,2.78
2022-10-28T18:03:42.825Z,3.55
2022-10-28T18:06:44.742Z,3.40
2022-10-28T18:09:46.741Z,3.88
2022-10-28T18:12:50.622Z,4.03
2022-10-28T18:15:52.597Z,4.07
2022-10-28T18:18:55.121Z,3.78
2022-10-28T18:21:57.514Z,4.07
2022-10-28T18:24:59.522Z,4.35
2022-10-28T18:28:04.851Z,4.78
2022-10-28T18:31:10.327Z,3.95
2022-10-28T18:34:12.417Z,4.22
2022-10-28T18:37:14.456Z,4.30
2022-10-28T18:40:16.567Z,4.55
2022-10-28T18:43:18.667Z,4.25
2022-10-28T18:46:21.205Z,4.45
2022-10-28T18:49:24.612Z,5.20
2022-10-28T18:52:26.610Z,6.82
2022-10-28T18:55:28.526Z,7.68
2022-10-28T18:58:30.770Z,7.57
2022-10-28T19:01:33.049Z,4.40
2022-10-28T19:04:35.035Z,4.30
2022-10-28T19:07:36.995Z,4.50
2022-10-28T19:10:39.095Z,4.18
2022-10-28T19:13:42.442Z,3.92
2022-10-28T19:16:44.485Z,4.00
2022-10-28T19:19:46.779Z,3.90
2022-10-28T19:22:48.942Z,4.28
2022-10-28T19:25:55.520Z,3.63
2022-10-28T19:28:57.734Z,3.33
2022-10-28T19:35:01.502Z,3.97
2022-10-28T19:38:03.654Z,4.47
2022-10-28T19:44:11.404Z,3.72
2022-10-28T19:47:13.409Z,4.07
2022-10-28T19:50:15.815Z,3.63
2022-10-28T19:53:17.715Z,3.28
2022-10-28T19:56:20.682Z,3.30
2022-10-28T19:59:22.674Z,4.65
2022-10-28T20:02:24.782Z,4.05
2022-10-28T20:08:30.643Z,3.60
2022-10-28T20:14:38.855Z,3.33
2022-10-28T20:17:41.831Z,3.65
2022-10-28T20:20:43.843Z,3.33
2022-10-28T20:23:47.850Z,3.30
2022-10-28T20:26:49.868Z,3.72
2022-10-28T20:29:51.876Z,3.55
2022-10-28T20:32:55.850Z,3.08
2022-10-28T20:35:58.379Z,4.20
2022-10-28T20:39:02.791Z,3.72
2022-10-28T20:42:04.784Z,3.45
2022-10-28T20:45:07.021Z,3.53
2022-10-28T20:51:11.161Z,3.60
2022-10-28T20:54:13.097Z,3.03
2022-10-28T20:57:14.962Z,3.25
2022-10-28T21:00:17.928Z,3.50
2022-10-28T21:03:21.851Z,2.78
2022-10-28T21:06:25.475Z,3.75
2022-10-28T21:09:27.362Z,3.72
2022-10-28T21:12:29.337Z,3.55
2022-10-28T21:15:35.120Z,3.42
2022-10-28T21:18:38.720Z,3.35
2022-10-28T21:21:40.599Z,3.28
2022-10-28T21:24:42.532Z,3.63
2022-10-28T21:27:44.566Z,3.88
2022-10-28T21:30:47.218Z,4.30
2022-10-28T21:37:11.570Z,4.22
2022-10-28T21:40:13.866Z,4.38
2022-10-28T21:46:19.323Z,4.00
2022-10-28T21:49:21.182Z,3.80
2022-10-28T21:52:23.128Z,3.53
2022-10-28T21:55:41.688Z,4.00
2022-10-28T21:58:48.506Z,3.78
2022-10-28T22:01:50.564Z,3.47
2022-10-28T22:04:52.562Z,3.45
2022-10-28T22:07:55.002Z,3.17
2022-10-28T22:11:06.970Z,3.95
2022-10-28T22:14:10.142Z,3.30
2022-10-28T22:17:12.175Z,3.35
2022-10-28T22:20:15.035Z,3.58
2022-10-28T22:23:17.086Z,3.80
2022-10-28T22:26:24.842Z,3.60
2022-10-28T22:29:28.515Z,3.97
2022-10-28T22:32:30.392Z,3.85
2022-10-28T22:35:32.345Z,3.40
2022-10-28T22:38:34.665Z,3.40
2022-10-28T22:44:38.574Z,3.05
2022-10-28T22:47:40.573Z,3.22
2022-10-28T22:53:45.527Z,3.03
2022-10-28T22:56:47.932Z,3.90
2022-10-28T22:59:50.052Z,3.97
2022-10-28T23:02:52.031Z,3.60
2022-10-28T23:05:54.215Z,3.65
2022-10-28T23:08:56.320Z,3.25
2022-10-28T23:11:58.281Z,4.20
2022-10-28T23:15:00.195Z,4.40
2022-10-28T23:18:04.621Z,4.82
2022-10-28T23:21:24.656Z,4.25
2022-10-28T23:24:26.671Z,3.63
2022-10-28T23:27:28.577Z,3.72
2022-10-28T23:30:30.539Z,3.33
2022-10-28T23:33:34.210Z,3.78
2022-10-28T23:36:36.544Z,4.80
2022-10-28T23:39:38.471Z,3.97
2022-10-28T23:42:40.440Z,3.88
2022-10-28T23:45:44.894Z,4.05
2022-10-28T23:48:46.925Z,3.80
2022-10-28T23:51:48.903Z,3.88
2022-10-28T23:54:51.126Z,3.75
2022-10-28T23:57:56.866Z,3.97
